Time;durP1;ratioP1;P1;durP2;ratioP2;P2;SDS_P1;SDS_P2;PMS_P1;PMS_P2;Temp;Humidity;BMP_temperature;BMP_pressure;BME280_temperature;BME280_humidity;BME280_pressure;Samples;Min_cycle;Max_cycle;Signal;HPM_P1;HPM_P2
2023/06/06 00:00:33;;;;;;;0.50;0.50;;;;;;;13.44;85.82;97459.28;5063749;28;20048;-60
2023/06/06 00:03:00;;;;;;;0.50;0.50;;;;;;;13.41;85.75;97460.03;5066781;28;20048;-61
2023/06/06 00:05:29;;;;;;;0.60;0.60;;;;;;;13.35;85.87;97455.19;5083887;28;20051;-61
2023/06/06 00:07:56;;;;;;;0.60;0.60;;;;;;;13.32;86.92;97453.97;5084159;28;20066;-62
2023/06/06 00:10:23;;;;;;;0.60;0.60;;;;;;;13.13;85.87;97422.69;5082228;28;20109;-61
2023/06/06 00:12:52;;;;;;;0.52;0.52;;;;;;;13.02;85.71;97430.91;5084305;28;20048;-61
2023/06/06 00:15:19;;;;;;;0.60;0.60;;;;;;;12.97;87.63;97522.16;5084227;28;20044;-61
2023/06/06 00:17:48;;;;;;;0.50;0.50;;;;;;;13.03;87.46;97457.53;5084025;28;20052;-61
2023/06/06 00:20:16;;;;;;;0.60;0.60;;;;;;;13.06;87.08;97470.69;5082068;28;20735;-60
2023/06/06 00:22:43;;;;;;;0.60;0.60;;;;;;;12.97;87.58;97478.47;5083647;28;20063;-60
2023/06/06 00:25:10;;;;;;;0.60;0.60;;;;;;;12.94;87.08;97456.97;5083633;28;20066;-61
2023/06/06 00:27:37;;;;;;;0.55;0.55;;;;;;;13.02;86.73;97458.72;5083591;28;20079;-61
2023/06/06 00:30:05;;;;;;;0.60;0.60;;;;;;;13.02;87.03;97453.16;5083582;28;20558;-61
2023/06/06 00:32:32;;;;;;;0.60;0.60;;;;;;;12.91;88.19;97446.63;5083740;28;20136;-62
2023/06/06 00:34:59;;;;;;;0.52;0.52;;;;;;;13.00;87.01;97458.28;5083605;28;20048;-61
2023/06/06 00:37:25;;;;;;;0.60;0.60;;;;;;;13.02;86.83;97442.03;5082079;28;20060;-61
2023/06/06 00:39:52;;;;;;;0.60;0.60;;;;;;;12.87;87.10;97448.53;5083607;28;20522;-61
2023/06/06 00:42:19;;;;;;;0.50;0.50;;;;;;;12.81;87.23;97429.75;5081395;28;20048;-60
2023/06/06 00:44:46;;;;;;;0.60;0.60;;;;;;;11.63;88.16;97280.31;5083416;28;20058;-60
2023/06/06 00:47:13;;;;;;;0.60;0.60;;;;;;;12.27;87.75;97365.41;5082932;28;20079;-61
2023/06/06 00:49:42;;;;;;;0.50;0.50;;;;;;;12.69;88.48;97447.47;5083735;28;20051;-60
2023/06/06 00:52:10;;;;;;;0.60;0.60;;;;;;;12.79;87.61;97446.81;5083127;28;20439;-60
2023/06/06 00:54:37;;;;;;;0.52;0.52;;;;;;;12.40;88.61;97389.84;5082427;28;20130;-60
2023/06/06 00:57:07;;;;;;;0.60;0.60;;;;;;;12.69;88.77;97444.69;5083154;28;20044;-61
2023/06/06 00:59:34;;;;;;;0.50;0.50;;;;;;;12.47;89.11;97439.94;5083335;28;20138;-60
2023/06/06 01:02:04;;;;;;;0.50;0.50;;;;;;;12.49;89.44;97440.41;5083315;28;20044;-60
2023/06/06 01:04:31;;;;;;;0.60;0.60;;;;;;;12.07;89.82;97393.31;5083936;28;20052;-60
2023/06/06 01:06:57;;;;;;;0.50;0.50;;;;;;;12.52;89.36;97436.88;5081745;28;20052;-61
2023/06/06 01:09:25;;;;;;;0.50;0.50;;;;;;;11.83;91.05;97378.97;5084956;28;20043;-60
2023/06/06 01:12:20;;;;;;;0.60;0.60;;;;;;;12.38;91.37;97436.66;5085358;28;20472;-61
2023/06/06 01:15:06;;;;;;;0.52;0.52;;;;;;;12.40;90.29;97437.09;5086922;28;20806;-60
2023/06/06 01:17:36;;;;;;;0.60;0.60;;;;;;;12.29;90.19;97433.31;5086973;28;20047;-60
2023/06/06 01:20:06;;;;;;;0.50;0.50;;;;;;;12.26;89.24;97427.72;5087187;28;20044;-60
2023/06/06 01:22:35;;;;;;;0.50;0.50;;;;;;;11.99;90.08;97371.34;5086924;28;20088;-60
2023/06/06 01:25:03;;;;;;;0.50;0.50;;;;;;;12.29;90.08;97429.75;5086881;28;20071;-61
2023/06/06 01:27:33;;;;;;;0.52;0.52;;;;;;;12.23;90.03;97425.69;5086987;28;20105;-59
2023/06/06 01:30:03;;;;;;;0.60;0.60;;;;;;;11.96;89.70;97366.53;5085538;28;20060;-60
2023/06/06 01:32:41;;;;;;;0.50;0.50;;;;;;;12.13;89.61;97400.16;5085157;28;20490;-60
2023/06/06 01:35:14;;;;;;;0.50;0.50;;;;;;;12.29;90.08;97419.44;5085476;28;20123;-60
2023/06/06 01:37:52;;;;;;;0.60;0.60;;;;;;;12.21;90.40;97423.28;5085630;28;20891;-59
2023/06/06 01:40:21;;;;;;;0.50;0.50;;;;;;;11.94;91.92;97424.38;5086261;28;20827;-60
2023/06/06 01:42:49;;;;;;;0.50;0.50;;;;;;;11.36;92.27;97331.34;5086610;28;20058;-59
2023/06/06 01:45:21;;;;;;;0.50;0.50;;;;;;;11.56;92.07;97368.94;5086254;28;20049;-59
2023/06/06 01:47:49;;;;;;;0.50;0.50;;;;;;;11.55;91.30;97350.72;5086401;28;20052;-60
2023/06/06 01:50:16;;;;;;;0.60;0.60;;;;;;;11.99;91.02;97421.31;5085895;28;20048;-60
2023/06/06 01:52:44;;;;;;;0.50;0.50;;;;;;;12.04;91.01;97412.66;5084896;28;20059;-60
2023/06/06 01:55:10;;;;;;;0.50;0.50;;;;;;;12.06;92.32;97404.78;5084624;28;20051;-60
2023/06/06 01:57:37;;;;;;;0.50;0.50;;;;;;;11.53;91.39;97341.94;5086106;28;20054;-59
2023/06/06 02:00:07;;;;;;;0.55;0.55;;;;;;;12.00;92.03;97417.34;5086207;28;20044;-60
2023/06/06 02:02:35;;;;;;;0.50;0.50;;;;;;;12.05;91.67;97415.09;5085840;28;20048;-60
2023/06/06 02:05:03;;;;;;;0.50;0.50;;;;;;;11.72;91.00;97361.34;5063145;28;21089;-60
2023/06/06 02:07:30;;;;;;;0.50;0.50;;;;;;;12.07;90.82;97418.28;5092779;28;20055;-60
2023/06/06 02:09:57;;;;;;;0.52;0.52;;;;;;;12.05;91.03;97422.59;5106583;28;20771;-61
2023/06/06 02:12:23;;;;;;;0.50;0.50;;;;;;;12.00;91.28;97422.91;5106270;28;20433;-61
2023/06/06 02:14:51;;;;;;;0.50;0.50;;;;;;;11.91;91.39;97430.69;5104757;28;20043;-61
2023/06/06 02:17:17;;;;;;;0.60;0.60;;;;;;;11.29;91.80;97332.00;5106159;28;20582;-61
2023/06/06 02:19:44;;;;;;;0.50;0.50;;;;;;;11.61;91.93;97371.41;5104138;28;20044;-62
2023/06/06 02:22:11;;;;;;;0.50;0.50;;;;;;;11.82;92.72;97432.91;5105471;28;20043;-60
2023/06/06 02:24:37;;;;;;;0.50;0.50;;;;;;;11.27;91.63;97334.34;5104103;27;20055;-60
2023/06/06 02:27:09;;;;;;;0.50;0.50;;;;;;;11.76;92.15;97426.84;5064569;28;20053;-60
2023/06/06 02:29:36;;;;;;;0.50;0.50;;;;;;;11.29;92.55;97370.81;5064463;28;20412;-61
2023/06/06 02:32:04;;;;;;;0.50;0.50;;;;;;;11.81;92.49;97448.75;5079705;28;20064;-61
2023/06/06 02:34:31;;;;;;;0.52;0.52;;;;;;;9.84;91.02;97117.00;5064053;28;20053;-62
2023/06/06 02:36:59;;;;;;;0.45;0.45;;;;;;;11.88;92.27;97437.78;5064183;28;20056;-61
2023/06/06 02:39:26;;;;;;;0.50;0.50;;;;;;;11.83;92.59;97437.28;5065218;28;20522;-60
2023/06/06 02:41:53;;;;;;;0.47;0.47;;;;;;;11.11;92.34;97318.97;5064806;28;20049;-61
2023/06/06 02:44:19;;;;;;;0.50;0.50;;;;;;;11.75;92.47;97432.75;5064776;28;20044;-61
2023/06/06 02:46:46;;;;;;;0.52;0.52;;;;;;;11.88;92.71;97442.53;5064844;28;20092;-61
2023/06/06 02:49:13;;;;;;;0.52;0.52;;;;;;;11.83;92.41;97440.88;5064721;28;20106;-61
2023/06/06 02:51:41;;;;;;;0.50;0.50;;;;;;;11.79;92.42;97433.66;5064405;28;20539;-62
2023/06/06 02:54:07;;;;;;;0.50;0.50;;;;;;;11.78;92.54;97420.91;5064509;28;20496;-62
2023/06/06 02:56:34;;;;;;;0.50;0.50;;;;;;;11.86;92.72;97433.75;5064882;28;20048;-61
2023/06/06 02:59:01;;;;;;;0.57;0.57;;;;;;;11.94;93.21;97435.50;5064239;28;20511;-61
2023/06/06 03:01:30;;;;;;;0.50;0.50;;;;;;;11.97;91.63;97426.41;5080058;28;20071;-61
2023/06/06 03:03:57;;;;;;;0.50;0.50;;;;;;;12.03;91.10;97434.06;5078125;28;20054;-60
2023/06/06 03:06:24;;;;;;;0.60;0.60;;;;;;;11.86;92.90;97444.84;5104806;28;20056;-61
2023/06/06 03:08:55;;;;;;;0.50;0.50;;;;;;;12.01;91.77;97441.97;5105364;28;20236;-60
2023/06/06 03:11:21;;;;;;;0.60;0.60;;;;;;;11.77;91.08;97363.81;5105498;28;20052;-61
2023/06/06 03:13:48;;;;;;;0.50;0.50;;;;;;;12.17;90.54;97455.75;5105229;27;20061;-60
2023/06/06 03:16:15;;;;;;;0.50;0.50;;;;;;;12.15;91.48;97433.09;5104986;28;20047;-60
2023/06/06 03:18:46;;;;;;;0.50;0.50;;;;;;;12.36;90.15;97446.53;5105705;28;20142;-60
2023/06/06 03:21:14;;;;;;;0.50;0.50;;;;;;;11.70;89.64;97341.47;5105293;28;20044;-61
2023/06/06 03:23:41;;;;;;;0.60;0.60;;;;;;;11.92;88.68;97383.13;5104996;28;20483;-61
2023/06/06 03:26:08;;;;;;;0.50;0.50;;;;;;;12.21;88.32;97423.28;5102983;28;20479;-61
2023/06/06 03:28:35;;;;;;;0.50;0.50;;;;;;;12.07;87.69;97406.38;5104789;28;20079;-61
2023/06/06 03:31:07;;;;;;;0.50;0.50;;;;;;;12.23;88.77;97443.16;5102705;28;20059;-61
2023/06/06 03:33:37;;;;;;;0.50;0.50;;;;;;;11.83;90.28;97387.31;5104438;28;20047;-60
2023/06/06 03:36:07;;;;;;;0.50;0.50;;;;;;;12.22;90.55;97433.19;5104363;28;20065;-61
2023/06/06 03:38:33;;;;;;;0.50;0.50;;;;;;;12.17;90.35;97439.09;5103389;28;20051;-61
2023/06/06 03:41:02;;;;;;;0.50;0.50;;;;;;;12.42;89.41;97445.84;5070366;28;20511;-62
2023/06/06 03:43:30;;;;;;;0.60;0.60;;;;;;;11.38;87.75;97273.53;5064222;28;20135;-60
2023/06/06 03:45:56;;;;;;;0.50;0.50;;;;;;;12.51;87.40;97440.81;5063384;28;20147;-60
2023/06/06 03:48:23;;;;;;;0.60;0.60;;;;;;;11.92;87.20;97337.88;5063661;28;20048;-61
2023/06/06 03:50:50;;;;;;;0.60;0.60;;;;;;;12.71;87.44;97431.22;5078838;28;20052;-61
2023/06/06 03:53:17;;;;;;;0.50;0.50;;;;;;;12.22;87.95;97385.97;5064273;28;20059;-61
2023/06/06 03:55:47;;;;;;;0.50;0.50;;;;;;;12.87;86.94;97440.19;5064190;28;20269;-60
2023/06/06 03:58:14;;;;;;;0.50;0.50;;;;;;;13.03;86.79;97435.28;5064289;28;20139;-61
2023/06/06 04:00:41;;;;;;;0.60;0.60;;;;;;;12.76;88.28;97442.00;5062362;28;20044;-61
2023/06/06 04:03:07;;;;;;;0.60;0.60;;;;;;;12.45;87.76;97355.38;5062559;28;20048;-61
2023/06/06 04:05:34;;;;;;;0.57;0.57;;;;;;;13.25;86.63;97444.69;5098036;28;20048;-62
2023/06/06 04:08:02;;;;;;;0.55;0.55;;;;;;;13.16;85.01;97403.28;5104440;28;20092;-62
2023/06/06 04:10:28;;;;;;;0.60;0.60;;;;;;;13.68;83.62;97436.50;5103965;28;20112;-61
2023/06/06 04:12:55;;;;;;;0.60;0.60;;;;;;;13.80;83.34;97437.41;5104464;28;20278;-62
2023/06/06 04:15:22;;;;;;;0.60;0.60;;;;;;;13.96;82.63;97446.34;5102420;28;20051;-62
2023/06/06 04:17:48;;;;;;;0.60;0.60;;;;;;;14.10;81.44;97440.91;5104412;28;20625;-60
2023/06/06 04:20:15;;;;;;;0.60;0.60;;;;;;;14.22;81.01;97454.56;5102441;28;20055;-61
2023/06/06 04:22:43;;;;;;;0.60;0.60;;;;;;;13.66;80.71;97347.00;5104081;28;20532;-61
2023/06/06 04:25:12;;;;;;;0.60;0.60;;;;;;;14.49;79.93;97447.66;5103851;28;20052;-62
2023/06/06 04:27:40;;;;;;;0.60;0.60;;;;;;;14.70;79.89;97442.25;5104130;28;20330;-61
2023/06/06 04:30:09;;;;;;;0.60;0.60;;;;;;;14.91;79.24;97453.53;5102295;28;20502;-61
2023/06/06 04:32:36;;;;;;;0.65;0.65;;;;;;;15.09;78.40;97446.88;5104011;28;20047;-61
2023/06/06 04:35:04;;;;;;;0.60;0.60;;;;;;;15.19;77.64;97442.53;5103840;28;20067;-61
2023/06/06 04:37:32;;;;;;;0.60;0.60;;;;;;;15.18;77.21;97432.56;5103740;28;20057;-61
2023/06/06 04:40:00;;;;;;;0.60;0.60;;;;;;;15.34;78.14;97449.00;5102653;28;20051;-61
2023/06/06 04:42:33;;;;;;;0.70;0.70;;;;;;;15.51;77.17;97454.69;5102290;28;20468;-60
2023/06/06 04:45:02;;;;;;;0.70;0.70;;;;;;;15.74;76.83;97452.41;5107516;28;20049;-61
2023/06/06 04:47:33;;;;;;;0.70;0.70;;;;;;;15.75;76.22;97465.19;5107657;28;20055;-62
2023/06/06 04:50:00;;;;;;;0.80;0.80;;;;;;;15.97;76.13;97455.66;5107636;28;20055;-61
2023/06/06 04:52:28;;;;;;;0.60;0.60;;;;;;;16.11;74.58;97450.09;5107751;28;20044;-60
2023/06/06 04:54:55;;;;;;;0.60;0.60;;;;;;;16.27;73.53;97456.13;5106855;28;20067;-62
2023/06/06 04:57:23;;;;;;;0.80;0.80;;;;;;;16.08;72.38;97400.59;5094048;28;20600;-60
2023/06/06 04:59:53;;;;;;;0.70;0.70;;;;;;;16.30;72.04;97458.13;5087471;28;20048;-60
2023/06/06 05:02:21;;;;;;;0.80;0.80;;;;;;;15.76;72.88;97380.16;5087173;28;20047;-60
2023/06/06 05:04:52;;;;;;;0.70;0.70;;;;;;;16.32;72.50;97455.72;5095146;28;20052;-60
2023/06/06 05:07:23;;;;;;;0.60;0.60;;;;;;;16.39;72.35;97454.94;5105881;28;20055;-59
2023/06/06 05:09:52;;;;;;;0.80;0.80;;;;;;;16.42;71.88;97454.16;5107558;28;20043;-60
2023/06/06 05:12:19;;;;;;;0.65;0.65;;;;;;;16.19;71.94;97434.94;5107137;28;20047;-60
2023/06/06 05:14:46;;;;;;;0.77;0.77;;;;;;;16.73;72.03;97452.56;5107465;28;20090;-60
2023/06/06 05:17:17;;;;;;;0.70;0.70;;;;;;;16.86;70.71;97456.56;5106866;28;20054;-60
2023/06/06 05:19:45;;;;;;;0.70;0.70;;;;;;;16.86;70.56;97462.16;5107155;28;20498;-59
2023/06/06 05:22:13;;;;;;;0.70;0.70;;;;;;;16.81;70.32;97420.59;5106864;27;20048;-60
2023/06/06 05:24:41;;;;;;;0.70;0.70;;;;;;;16.93;70.02;97422.97;5106945;28;20058;-60
2023/06/06 05:27:08;;;;;;;0.80;0.80;;;;;;;17.27;69.53;97427.69;5105137;28;20066;-60
2023/06/06 05:29:34;;;;;;;0.80;0.80;;;;;;;17.15;70.67;97453.31;5107134;28;20048;-60
2023/06/06 05:32:02;;;;;;;0.70;0.70;;;;;;;17.37;70.00;97452.03;5105144;28;20047;-60
2023/06/06 05:34:29;;;;;;;0.70;0.70;;;;;;;17.24;71.39;97450.91;5105436;28;20510;-59
2023/06/06 05:36:56;;;;;;;0.80;0.80;;;;;;;17.47;71.60;97453.25;5106628;28;20196;-60
2023/06/06 05:39:24;;;;;;;0.77;0.77;;;;;;;17.36;70.24;97410.44;5107283;28;20071;-62
2023/06/06 05:41:54;;;;;;;0.70;0.70;;;;;;;17.93;69.99;97445.44;5106527;27;20051;-60
2023/06/06 05:44:22;;;;;;;0.80;0.80;;;;;;;18.13;68.58;97452.13;5107046;27;20539;-61
2023/06/06 05:46:54;;;;;;;0.70;0.70;;;;;;;18.22;68.26;97455.31;5106013;28;20522;-61
2023/06/06 05:49:23;;;;;;;0.70;0.70;;;;;;;18.43;68.64;97443.16;5106598;27;20130;-61
2023/06/06 05:51:50;;;;;;;0.82;0.82;;;;;;;18.45;67.05;97446.34;5095368;27;20055;-62
2023/06/06 05:54:17;;;;;;;0.80;0.80;;;;;;;17.83;69.42;97449.13;5082683;28;20047;-61
2023/06/06 05:56:44;;;;;;;0.80;0.80;;;;;;;17.25;70.25;97339.69;5105108;28;20059;-61
2023/06/06 05:59:11;;;;;;;0.80;0.80;;;;;;;18.45;68.72;97446.34;5106493;28;20051;-61
2023/06/06 06:01:39;;;;;;;0.90;0.90;;;;;;;18.62;67.76;97449.00;5105656;28;20337;-60
2023/06/06 06:04:07;;;;;;;0.80;0.80;;;;;;;17.75;67.46;97329.84;5105433;28;20085;-61
2023/06/06 06:06:35;;;;;;;0.90;0.90;;;;;;;18.35;68.56;97403.13;5084476;28;20052;-61
2023/06/06 06:09:03;;;;;;;0.90;0.90;;;;;;;18.59;67.54;97368.47;5085190;28;20047;-63
2023/06/06 06:11:30;;;;;;;0.80;0.80;;;;;;;18.23;67.87;97395.19;5076863;28;20079;-63
2023/06/06 06:13:58;;;;;;;0.80;0.80;;;;;;;18.43;68.65;97401.88;5064789;28;20369;-61
2023/06/06 06:16:25;;;;;;;0.80;0.80;;;;;;;18.73;67.89;97385.16;5066280;28;20121;-61
2023/06/06 06:18:52;;;;;;;0.80;0.80;;;;;;;18.28;68.77;97403.16;5086143;28;20956;-59
2023/06/06 06:21:22;;;;;;;0.80;0.80;;;;;;;17.89;70.43;97437.03;5084201;28;20066;-60
2023/06/06 06:23:49;;;;;;;0.80;0.80;;;;;;;17.97;71.31;97449.03;5085355;28;20059;-62
2023/06/06 06:26:16;;;;;;;0.80;0.80;;;;;;;18.04;70.79;97420.94;5084956;28;20052;-65
2023/06/06 06:28:43;;;;;;;0.88;0.88;;;;;;;18.71;68.87;97454.16;5084981;28;20056;-62
2023/06/06 06:31:10;;;;;;;0.80;0.80;;;;;;;17.60;68.50;97305.91;5084788;28;20055;-66
2023/06/06 06:33:37;;;;;;;0.80;0.80;;;;;;;18.38;69.25;97436.00;5085043;28;20510;-60
2023/06/06 06:36:04;;;;;;;0.73;0.73;;;;;;;18.96;68.09;97438.69;5085048;28;20052;-60
2023/06/06 06:38:31;;;;;;;0.90;0.90;;;;;;;18.36;65.95;97314.94;5083295;28;20044;-60
2023/06/06 06:40:58;;;;;;;0.80;0.80;;;;;;;19.31;64.29;97427.13;5084984;28;20048;-62
2023/06/06 06:43:24;;;;;;;0.80;0.80;;;;;;;19.47;61.59;97406.88;5075277;28;20534;-62
2023/06/06 06:45:51;;;;;;;0.80;0.80;;;;;;;19.89;63.82;97445.69;5065183;28;20056;-62
2023/06/06 06:48:17;;;;;;;0.80;0.80;;;;;;;19.63;63.05;97448.44;5064690;28;20049;-60
2023/06/06 06:50:45;;;;;;;0.98;0.98;;;;;;;19.61;62.88;97450.88;5064298;28;20056;-65
2023/06/06 06:53:13;;;;;;;0.90;0.90;;;;;;;19.80;62.36;97430.56;5064402;28;20058;-59
2023/06/06 06:55:41;;;;;;;0.80;0.80;;;;;;;20.19;61.43;97442.91;5079788;28;20052;-62
2023/06/06 06:58:08;;;;;;;0.90;0.90;;;;;;;20.48;59.29;97429.19;5064476;28;20569;-60
2023/06/06 07:00:34;;;;;;;0.80;0.80;;;;;;;20.65;59.58;97453.44;5064577;28;20142;-63
2023/06/06 07:03:03;;;;;;;0.82;0.82;;;;;;;20.46;61.42;97456.97;5064619;28;20053;-63
2023/06/06 07:05:31;;;;;;;0.90;0.90;;;;;;;20.29;60.98;97380.06;5083491;28;20104;-64
2023/06/06 07:07:59;;;;;;;0.90;0.90;;;;;;;20.76;59.77;97448.44;5104447;28;20487;-64
2023/06/06 07:10:28;;;;;;;0.80;0.80;;;;;;;20.73;58.66;97421.16;5104306;28;20692;-62
2023/06/06 07:12:56;;;;;;;0.90;0.90;;;;;;;20.69;59.29;97449.34;5104835;28;20520;-62
2023/06/06 07:15:23;;;;;;;0.90;0.90;;;;;;;20.67;59.21;97411.59;5104767;28;20171;-62
2023/06/06 07:17:50;;;;;;;0.80;0.80;;;;;;;20.57;59.78;97440.72;5104763;28;20089;-62
2023/06/06 07:20:23;;;;;;;0.90;0.90;;;;;;;20.03;60.38;97365.97;5102859;28;20134;-63
2023/06/06 07:22:55;;;;;;;;;;;;;;;20.91;57.92;97435.72;5103597;28;20125;-62
2023/06/06 07:25:23;;;;;;;0.80;0.80;;;;;;;20.79;58.66;97436.31;5103082;28;19923;-62
2023/06/06 07:27:49;;;;;;;0.90;0.90;;;;;;;20.81;58.11;97422.63;5104695;28;20082;-62
2023/06/06 07:30:16;;;;;;;0.90;0.90;;;;;;;20.80;57.39;97435.91;5104465;27;20059;-62
2023/06/06 07:32:46;;;;;;;0.90;0.90;;;;;;;20.95;58.04;97439.28;5104046;28;20478;-62
2023/06/06 07:35:17;;;;;;;0.90;0.90;;;;;;;21.22;58.92;97442.03;5104651;28;20067;-63
2023/06/06 07:37:44;;;;;;;0.82;0.82;;;;;;;21.49;57.24;97457.63;5104729;28;20556;-62
2023/06/06 07:40:11;;;;;;;0.90;0.90;;;;;;;21.26;55.90;97409.75;5104123;28;20659;-62
2023/06/06 07:42:42;;;;;;;0.90;0.90;;;;;;;21.26;55.55;97398.47;5104168;28;20056;-62
2023/06/06 07:45:09;;;;;;;0.93;0.93;;;;;;;21.83;54.93;97427.16;5103847;28;20100;-62
2023/06/06 07:47:36;;;;;;;0.90;0.90;;;;;;;21.37;56.56;97410.31;5102542;28;20059;-62
2023/06/06 07:50:03;;;;;;;0.80;0.80;;;;;;;21.26;56.20;97409.75;5104154;28;20055;-62
2023/06/06 07:52:33;;;;;;;0.95;0.95;;;;;;;21.60;54.99;97407.47;5102482;28;20416;-62
2023/06/06 07:55:00;;;;;;;0.90;0.90;;;;;;;20.77;57.25;97416.25;5103781;28;20291;-62
2023/06/06 07:57:27;;;;;;;0.90;0.90;;;;;;;21.53;56.96;97429.38;5104053;28;20058;-62
2023/06/06 07:59:54;;;;;;;0.82;0.82;;;;;;;21.01;58.59;97431.94;5104124;28;20151;-61
2023/06/06 08:02:21;;;;;;;0.85;0.85;;;;;;;21.46;58.74;97419.03;5104117;28;20135;-63
2023/06/06 08:04:48;;;;;;;0.90;0.90;;;;;;;21.08;57.92;97403.66;5100347;28;20515;-62
2023/06/06 08:07:15;;;;;;;0.90;0.90;;;;;;;21.67;58.36;97412.16;5083835;28;20052;-62
2023/06/06 08:09:42;;;;;;;0.80;0.80;;;;;;;22.05;56.83;97411.34;5083619;28;20051;-63
2023/06/06 08:12:11;;;;;;;0.90;0.90;;;;;;;21.72;58.30;97415.25;5082428;28;20052;-63
2023/06/06 08:14:38;;;;;;;0.80;0.80;;;;;;;21.30;58.20;97426.59;5073616;28;20513;-65
2023/06/06 08:17:06;;;;;;;0.90;0.90;;;;;;;21.39;57.90;97424.00;5077680;28;20049;-64
2023/06/06 08:19:34;;;;;;;1.00;1.00;;;;;;;21.81;57.54;97426.81;5074731;28;20056;-69
2023/06/06 08:22:01;;;;;;;1.00;1.00;;;;;;;22.07;56.97;97403.25;5069240;28;20487;-62
2023/06/06 08:24:29;;;;;;;0.90;0.90;;;;;;;22.02;55.45;97386.81;5075740;28;20052;-63
2023/06/06 08:26:56;;;;;;;0.95;0.95;;;;;;;22.74;55.70;97412.19;5067270;28;20060;-66
2023/06/06 08:29:23;;;;;;;0.90;0.90;;;;;;;21.49;54.77;97271.56;5079578;28;20123;-66
2023/06/06 08:31:52;;;;;;;1.00;1.00;;;;;;;21.67;57.00;97396.03;5069870;28;20048;-64
2023/06/06 08:34:18;;;;;;;1.00;1.00;;;;;;;21.88;56.40;97356.13;5067215;28;20503;-63
2023/06/06 08:36:46;;;;;;;0.88;0.88;;;;;;;22.11;54.89;97411.63;5070475;28;20308;-64
2023/06/06 08:39:13;;;;;;;1.00;1.00;;;;;;;22.43;54.76;97404.00;5070164;28;20068;-65
2023/06/06 08:41:49;;;;;;;1.00;1.00;;;;;;;21.63;54.76;97333.28;5075246;28;20135;-63
2023/06/06 08:44:21;;;;;;;1.00;1.00;;;;;;;22.60;52.45;97375.81;5076270;28;20319;-69
2023/06/06 08:46:59;;;;;;;0.90;0.90;;;;;;;23.05;52.94;97400.06;5097909;28;20048;-62
2023/06/06 08:49:28;;;;;;;1.00;1.00;;;;;;;22.43;52.11;97375.78;5081556;28;20087;-66
2023/06/06 08:51:56;;;;;;;0.93;0.93;;;;;;;22.79;52.90;97406.00;5081653;28;20045;-63
2023/06/06 08:54:25;;;;;;;1.02;1.02;;;;;;;23.32;51.81;97408.25;5064977;28;20048;-65
2023/06/06 08:56:53;;;;;;;1.00;1.00;;;;;;;23.40;49.38;97409.63;5069784;28;20086;-65
2023/06/06 08:59:20;;;;;;;1.00;1.00;;;;;;;22.40;50.85;97371.00;5082414;28;20052;-64
2023/06/06 09:01:52;;;;;;;1.10;1.10;;;;;;;22.12;52.40;97382.19;5086442;28;20047;-65
2023/06/06 09:04:20;;;;;;;1.00;1.00;;;;;;;22.35;52.70;97408.22;5072504;28;20464;-63
2023/06/06 09:06:50;;;;;;;1.00;1.00;;;;;;;23.09;50.31;97394.31;5074232;28;20549;-62
2023/06/06 09:09:19;;;;;;;0.93;0.93;;;;;;;23.24;50.38;97395.50;5069558;28;20044;-62
2023/06/06 09:11:46;;;;;;;1.00;1.00;;;;;;;23.03;49.04;97291.53;5071775;28;20048;-63
2023/06/06 09:14:12;;;;;;;1.05;1.05;;;;;;;22.26;49.86;97396.75;5083992;28;20048;-64
2023/06/06 09:16:39;;;;;;;1.02;1.02;;;;;;;22.44;51.05;97388.69;5081558;28;20464;-60
2023/06/06 09:19:08;;;;;;;1.10;1.10;;;;;;;22.60;48.22;97385.09;5087387;28;20051;-60
2023/06/06 09:21:36;;;;;;;1.10;1.10;;;;;;;22.17;48.82;97362.72;5084960;28;20055;-62
2023/06/06 09:24:03;;;;;;;1.10;1.10;;;;;;;22.86;47.83;97391.72;5085216;28;20540;-63
2023/06/06 09:26:33;;;;;;;1.10;1.10;;;;;;;23.01;48.60;97387.25;5086141;28;20423;-63
2023/06/06 09:29:07;;;;;;;0.98;0.98;;;;;;;23.58;46.55;97381.66;5086428;28;20437;-61
2023/06/06 09:31:38;;;;;;;1.00;1.00;;;;;;;23.53;44.94;97306.66;5086170;28;20460;-61
2023/06/06 09:34:08;;;;;;;1.10;1.10;;;;;;;23.79;43.93;97347.88;5086467;28;20059;-61
2023/06/06 09:36:41;;;;;;;1.10;1.10;;;;;;;22.87;45.41;97381.97;5084943;28;20048;-64
2023/06/06 09:39:15;;;;;;;1.00;1.00;;;;;;;23.38;44.37;97383.84;5086459;28;20056;-63
2023/06/06 09:41:46;;;;;;;1.20;1.20;;;;;;;23.97;43.54;97375.66;5084507;28;20524;-65
2023/06/06 09:44:23;;;;;;;1.10;1.10;;;;;;;24.03;42.46;97345.56;5086511;28;20155;-65
2023/06/06 09:46:57;;;;;;;1.10;1.10;;;;;;;23.75;43.14;97366.19;5084357;28;20079;-65
2023/06/06 09:49:24;;;;;;;1.42;1.42;;;;;;;23.91;41.19;97357.63;5084288;28;20048;-61
2023/06/06 09:51:54;;;;;;;1.10;1.10;;;;;;;22.72;42.25;97307.31;5085891;28;20487;-64
2023/06/06 09:54:23;;;;;;;1.30;1.30;;;;;;;24.12;42.85;97368.34;5086335;28;20048;-60
2023/06/06 09:56:51;;;;;;;1.13;1.13;;;;;;;23.40;41.82;97370.84;5085535;28;20612;-64
2023/06/06 09:59:21;;;;;;;1.20;1.20;;;;;;;21.67;42.30;97116.84;5086050;28;20062;-64
2023/06/06 10:01:53;;;;;;;1.10;1.10;;;;;;;23.96;41.11;97339.28;5085761;28;20139;-61
2023/06/06 10:04:20;;;;;;;1.00;1.00;;;;;;;24.17;40.33;97359.25;5085904;28;20485;-62
2023/06/06 10:06:47;;;;;;;1.00;1.00;;;;;;;23.80;39.97;97331.69;5085351;28;20463;-63
2023/06/06 10:09:15;;;;;;;1.13;1.13;;;;;;;23.62;40.81;97354.06;5085583;28;20062;-60
2023/06/06 10:11:43;;;;;;;1.10;1.10;;;;;;;22.74;42.17;97135.34;5084989;28;20101;-62
2023/06/06 10:14:10;;;;;;;1.10;1.10;;;;;;;24.39;40.09;97348.84;5085502;28;20055;-61
2023/06/06 10:16:38;;;;;;;1.10;1.10;;;;;;;24.01;40.11;97342.41;5085058;28;20060;-61
2023/06/06 10:19:08;;;;;;;1.05;1.05;;;;;;;24.44;38.77;97291.63;5085673;28;20135;-64
2023/06/06 10:21:36;;;;;;;1.20;1.20;;;;;;;25.31;37.58;97292.59;5084901;28;20148;-65
2023/06/06 10:24:05;;;;;;;1.20;1.20;;;;;;;25.76;34.33;97329.03;5083986;28;20064;-65
2023/06/06 10:26:55;;;;;;;1.38;1.38;;;;;;;25.42;33.54;97320.63;5083864;28;20048;-64
2023/06/06 10:29:40;;;;;;;1.20;1.20;;;;;;;24.40;35.59;97324.94;5083362;28;20074;-65
2023/06/06 10:32:15;;;;;;;1.10;1.10;;;;;;;24.15;35.53;97327.78;5082637;28;20047;-65
2023/06/06 10:34:49;;;;;;;1.20;1.20;;;;;;;24.65;33.52;97330.56;5082870;28;20101;-62
2023/06/06 10:37:21;;;;;;;1.20;1.20;;;;;;;25.37;34.27;97313.47;5084184;28;20555;-61
2023/06/06 10:39:59;;;;;;;1.10;1.10;;;;;;;25.12;30.96;97316.38;5084862;28;20135;-61
2023/06/06 10:42:40;;;;;;;1.40;1.40;;;;;;;25.93;33.68;97299.16;5084088;28;20105;-65
2023/06/06 10:45:07;;;;;;;1.30;1.30;;;;;;;26.62;32.54;97314.59;5084562;28;20097;-62
2023/06/06 10:47:46;;;;;;;1.40;1.40;;;;;;;26.14;31.90;97258.59;5084311;28;20056;-61
2023/06/06 10:50:16;;;;;;;1.20;1.20;;;;;;;24.85;34.60;97319.78;5084253;28;20059;-64
2023/06/06 10:52:50;;;;;;;1.20;1.20;;;;;;;24.69;36.43;97297.25;5085547;28;20056;-63
2023/06/06 10:55:38;;;;;;;1.00;1.00;;;;;;;24.77;34.84;97314.81;5084588;28;20569;-66
2023/06/06 10:58:28;;;;;;;1.20;1.20;;;;;;;25.14;33.95;97306.19;5084685;28;20138;-61
2023/06/06 11:01:06;;;;;;;1.27;1.27;;;;;;;25.06;33.70;97270.84;5084246;28;20143;-62
2023/06/06 11:03:35;;;;;;;1.20;1.20;;;;;;;26.00;33.69;97333.00;5084375;28;20074;-66
2023/06/06 11:06:01;;;;;;;1.20;1.20;;;;;;;26.12;33.69;97303.69;5079324;28;20044;-66
2023/06/06 11:08:57;;;;;;;1.35;1.35;;;;;;;25.72;32.68;97294.34;5064281;28;20060;-61
2023/06/06 11:11:28;;;;;;;1.25;1.25;;;;;;;25.19;35.37;97257.41;5062517;28;20048;-60
2023/06/06 11:14:06;;;;;;;1.30;1.30;;;;;;;25.29;34.93;97290.22;5063834;28;20515;-64
2023/06/06 11:16:39;;;;;;;1.30;1.30;;;;;;;25.76;36.30;97292.13;5064185;28;20163;-62
2023/06/06 11:19:21;;;;;;;1.33;1.33;;;;;;;25.96;35.52;97286.88;5064251;28;20455;-60
2023/06/06 11:21:50;;;;;;;1.20;1.20;;;;;;;25.88;36.55;97285.56;5064104;28;20060;-64
2023/06/06 11:24:20;;;;;;;1.48;1.48;;;;;;;25.67;38.58;97292.09;5064233;28;20151;-64
2023/06/06 11:26:51;;;;;;;1.48;1.48;;;;;;;26.12;37.51;97278.13;5064055;28;20052;-65
2023/06/06 11:29:22;;;;;;;1.40;1.40;;;;;;;25.72;36.85;97170.22;5063621;28;20128;-61
2023/06/06 11:31:49;;;;;;;1.40;1.40;;;;;;;26.22;38.86;97268.41;5063944;28;20067;-62
2023/06/06 11:34:16;;;;;;;1.25;1.25;;;;;;;24.76;39.90;97212.00;5062019;28;20053;-66
2023/06/06 11:36:44;;;;;;;1.30;1.30;;;;;;;25.71;39.62;97270.03;5062479;28;20049;-64
2023/06/06 11:39:12;;;;;;;1.40;1.40;;;;;;;25.85;38.56;97269.47;5063677;28;20052;-65
2023/06/06 11:41:41;;;;;;;1.40;1.40;;;;;;;26.53;37.41;97206.59;5076959;28;20055;-63